createdAt,value
2022-10-15T00:01:52.012Z,5.78
2022-10-15T00:04:21.155Z,3.90
2022-10-15T00:06:49.742Z,5.65
2022-10-15T00:09:18.382Z,5.68
2022-10-15T00:11:47.016Z,5.90
2022-10-15T00:14:17.249Z,5.18
2022-10-15T00:16:46.665Z,6.85
2022-10-15T00:19:15.327Z,3.42
2022-10-15T00:21:43.958Z,4.28
2022-10-15T00:24:12.785Z,6.07
2022-10-15T00:26:41.381Z,5.00
2022-10-15T00:29:10.183Z,4.32
2022-10-15T00:31:40.338Z,4.47
2022-10-15T00:34:09.324Z,4.25
2022-10-15T00:36:38.286Z,5.57
2022-10-15T00:39:07.880Z,4.95
2022-10-15T00:41:38.614Z,4.30
2022-10-15T00:44:40.528Z,4.80
2022-10-15T00:47:17.264Z,4.25
2022-10-15T00:49:52.002Z,4.70
2022-10-15T00:52:25.084Z,4.00
2022-10-15T00:54:59.116Z,3.15
2022-10-15T00:57:28.229Z,3.45
2022-10-15T01:00:02.852Z,4.50
2022-10-15T01:02:34.056Z,4.30
2022-10-15T01:05:02.862Z,5.75
2022-10-15T01:07:32.191Z,4.53
2022-10-15T01:10:01.441Z,3.13
2022-10-15T01:12:43.969Z,3.80
2022-10-15T01:15:20.873Z,4.40
2022-10-15T01:17:55.267Z,4.90
2022-10-15T01:20:53.453Z,4.05
2022-10-15T01:24:10.517Z,5.05
2022-10-15T01:27:06.200Z,3.75
2022-10-15T01:29:52.128Z,4.80
2022-10-15T01:32:28.105Z,4.05
2022-10-15T01:35:01.280Z,4.13
2022-10-15T01:37:39.986Z,5.93
2022-10-15T01:40:13.215Z,6.70
2022-10-15T01:42:48.679Z,3.90
2022-10-15T01:45:22.345Z,5.15
2022-10-15T01:48:13.015Z,4.97
2022-10-15T01:50:47.963Z,5.35
2022-10-15T01:53:20.332Z,2.42
2022-10-15T01:55:50.827Z,4.50
2022-10-15T01:58:20.215Z,5.13
2022-10-15T02:00:49.701Z,3.80
2022-10-15T02:03:19.746Z,2.75
2022-10-15T02:05:54.639Z,3.42
2022-10-15T02:08:33.076Z,4.15
2022-10-15T02:11:06.232Z,3.85
2022-10-15T02:13:44.580Z,3.67
2022-10-15T02:16:17.632Z,3.30
2022-10-15T02:18:59.774Z,3.80
2022-10-15T02:21:33.891Z,4.80
2022-10-15T02:24:11.038Z,4.13
2022-10-15T02:26:41.557Z,2.40
2022-10-15T02:29:14.393Z,2.55
2022-10-15T02:31:45.287Z,2.55
2022-10-15T02:34:20.837Z,1.67
2022-10-15T02:36:50.949Z,4.22
2022-10-15T02:39:24.269Z,4.15
2022-10-15T02:41:53.827Z,4.30
2022-10-15T02:44:23.032Z,4.28
2022-10-15T02:46:51.635Z,4.55
2022-10-15T02:49:23.074Z,3.05
2022-10-15T02:51:52.922Z,4.40
2022-10-15T02:54:21.583Z,2.75
2022-10-15T02:56:50.272Z,3.60
2022-10-15T02:59:22.133Z,4.85
2022-10-15T03:01:51.683Z,4.38
2022-10-15T03:04:20.692Z,4.05
2022-10-15T03:06:50.897Z,4.53
2022-10-15T03:09:20.149Z,5.43
2022-10-15T03:11:49.401Z,6.50
2022-10-15T03:14:18.076Z,4.45
2022-10-15T03:16:47.035Z,6.40
2022-10-15T03:19:15.671Z,5.28
2022-10-15T03:21:46.831Z,7.88
2022-10-15T03:24:18.928Z,5.80
2022-10-15T03:26:48.073Z,8.88
2022-10-15T03:29:16.859Z,5.72
2022-10-15T03:31:52.852Z,4.45
2022-10-15T03:34:22.796Z,6.05
2022-10-15T03:36:51.819Z,7.30
2022-10-15T03:39:22.075Z,5.70
2022-10-15T03:41:55.204Z,7.18
2022-10-15T03:44:31.720Z,5.88
2022-10-15T03:47:07.846Z,5.50
2022-10-15T03:49:50.375Z,7.55
2022-10-15T03:52:19.090Z,6.10
2022-10-15T03:54:50.903Z,8.85
2022-10-15T03:57:21.924Z,6.30
2022-10-15T03:59:55.714Z,5.32
2022-10-15T04:02:27.014Z,6.88
2022-10-15T04:04:58.267Z,7.57
2022-10-15T04:07:27.924Z,5.82
2022-10-15T04:09:57.988Z,5.50
2022-10-15T04:12:31.547Z,6.38
2022-10-15T04:15:00.184Z,5.60
2022-10-15T04:17:31.832Z,7.60
2022-10-15T04:20:00.531Z,7.05
2022-10-15T04:22:29.251Z,5.85
2022-10-15T04:25:03.724Z,4.03
2022-10-15T04:27:32.487Z,8.25
2022-10-15T04:30:13.109Z,6.78
2022-10-15T04:32:53.259Z,7.75
2022-10-15T04:35:23.016Z,5.13
2022-10-15T04:38:05.973Z,9.73
2022-10-15T04:41:02.818Z,5.28
2022-10-15T04:43:44.095Z,8.88
2022-10-15T04:46:14.872Z,5.50
2022-10-15T04:48:43.619Z,6.88
2022-10-15T04:51:17.227Z,7.45
2022-10-15T04:54:02.261Z,6.25
2022-10-15T04:56:33.758Z,7.80
2022-10-15T04:59:02.485Z,7.03
2022-10-15T05:01:33.835Z,5.88
2022-10-15T05:04:12.202Z,4.22
2022-10-15T05:06:42.160Z,5.10
2022-10-15T05:09:20.369Z,7.90
2022-10-15T05:11:53.334Z,6.32
2022-10-15T05:14:22.002Z,8.23
2022-10-15T05:17:06.562Z,6.50
2022-10-15T05:19:41.006Z,5.43
2022-10-15T05:22:16.791Z,5.70
2022-10-15T05:24:51.581Z,6.95
2022-10-15T05:27:40.383Z,6.45
2022-10-15T05:30:10.052Z,6.55
2022-10-15T05:32:45.869Z,5.70
2022-10-15T05:35:18.727Z,5.80
2022-10-15T05:38:05.751Z,6.90
2022-10-15T05:40:35.003Z,8.10
2022-10-15T05:43:10.282Z,7.68
2022-10-15T05:45:38.963Z,5.22
2022-10-15T05:48:09.126Z,5.20
2022-10-15T05:50:38.230Z,7.68
2022-10-15T05:53:10.903Z,5.88
2022-10-15T05:56:02.207Z,8.55
2022-10-15T05:58:37.383Z,6.45
2022-10-15T06:01:08.701Z,8.80
2022-10-15T06:03:41.470Z,9.55
2022-10-15T06:06:19.213Z,5.57
2022-10-15T06:08:48.699Z,5.40
2022-10-15T06:11:18.193Z,6.50
2022-10-15T06:13:48.565Z,5.03
2022-10-15T06:16:22.551Z,6.05
2022-10-15T06:18:54.241Z,6.70
2022-10-15T06:21:22.950Z,6.68
2022-10-15T06:23:51.742Z,6.55
2022-10-15T06:26:20.432Z,7.38
2022-10-15T06:28:51.224Z,6.72
2022-10-15T06:31:19.897Z,5.70
2022-10-15T06:33:48.507Z,7.30
2022-10-15T06:36:17.493Z,6.03
2022-10-15T06:38:48.791Z,7.22
2022-10-15T06:41:18.619Z,5.97
2022-10-15T06:46:21.404Z,6.70
2022-10-15T06:48:51.971Z,7.00
2022-10-15T06:51:21.470Z,6.38
2022-10-15T06:53:52.159Z,6.13
2022-10-15T06:56:20.904Z,7.20
2022-10-15T06:58:49.610Z,7.20
2022-10-15T07:01:19.691Z,6.53
2022-10-15T07:03:50.890Z,6.28
2022-10-15T07:06:20.265Z,5.80
2022-10-15T07:08:49.149Z,6.93
2022-10-15T07:11:18.355Z,6.13
2022-10-15T07:13:47.091Z,5.15
2022-10-15T07:16:15.796Z,5.45
2022-10-15T07:18:45.833Z,5.32
2022-10-15T07:21:14.533Z,6.15
2022-10-15T07:23:43.180Z,5.72
2022-10-15T07:26:12.054Z,5.88
2022-10-15T07:28:40.926Z,6.20
2022-10-15T07:31:09.952Z,4.40
2022-10-15T07:33:38.671Z,4.72
2022-10-15T07:36:11.324Z,5.95
2022-10-15T07:38:41.350Z,6.75
2022-10-15T07:41:11.470Z,5.85
2022-10-15T07:43:44.616Z,4.63
2022-10-15T07:46:13.651Z,5.63
2022-10-15T07:48:42.623Z,4.93
2022-10-15T07:51:13.538Z,5.22
2022-10-15T07:53:44.074Z,4.72
2022-10-15T07:56:13.947Z,7.72
2022-10-15T07:58:43.471Z,5.18
2022-10-15T08:01:12.779Z,5.60
2022-10-15T08:03:41.615Z,5.05
2022-10-15T08:06:10.356Z,5.10
2022-10-15T08:08:40.518Z,5.82
2022-10-15T08:11:10.091Z,4.65
2022-10-15T08:13:41.459Z,4.20
2022-10-15T08:16:11.063Z,4.55
2022-10-15T08:18:42.048Z,4.60
2022-10-15T08:21:12.096Z,6.43
2022-10-15T08:23:42.136Z,4.97
2022-10-15T08:26:11.715Z,5.90
2022-10-15T08:28:40.514Z,5.47
2022-10-15T08:31:09.255Z,6.70
2022-10-15T08:33:38.781Z,4.95
2022-10-15T08:36:08.888Z,5.45
2022-10-15T08:38:38.037Z,5.55
2022-10-15T08:41:21.099Z,6.63
2022-10-15T08:43:51.646Z,4.07
2022-10-15T08:46:24.999Z,5.60
2022-10-15T08:48:57.519Z,5.70
2022-10-15T08:51:28.946Z,5.90
2022-10-15T08:54:01.449Z,4.78
2022-10-15T08:56:36.871Z,5.40
2022-10-15T08:59:18.407Z,5.40
2022-10-15T09:01:54.180Z,5.60
2022-10-15T09:04:32.327Z,4.38
2022-10-15T09:07:08.666Z,4.88
2022-10-15T09:09:45.658Z,6.10
2022-10-15T09:12:31.399Z,5.88
2022-10-15T09:15:02.032Z,6.35
2022-10-15T09:17:36.506Z,5.78
2022-10-15T09:20:08.875Z,5.15
2022-10-15T09:22:37.628Z,5.47
2022-10-15T09:25:17.061Z,4.78
2022-10-15T09:27:48.825Z,4.07
2022-10-15T09:30:30.155Z,5.18
2022-10-15T09:33:04.428Z,5.05
2022-10-15T09:35:38.369Z,3.88
2022-10-15T09:38:24.734Z,4.03
2022-10-15T09:41:04.885Z,3.60
2022-10-15T09:43:41.009Z,4.13
2022-10-15T09:46:10.809Z,3.30
2022-10-15T09:48:47.088Z,4.22
2022-10-15T09:51:25.374Z,4.43
2022-10-15T09:54:01.439Z,3.85
2022-10-15T09:56:37.294Z,3.60
2022-10-15T09:59:09.565Z,4.35
2022-10-15T10:01:38.646Z,3.38
2022-10-15T10:04:18.301Z,3.85
2022-10-15T10:06:49.447Z,4.15
2022-10-15T10:09:21.308Z,3.92
2022-10-15T10:11:53.578Z,3.97
2022-10-15T10:14:34.037Z,3.90
2022-10-15T10:17:19.871Z,4.38
2022-10-15T10:20:06.545Z,5.75
2022-10-15T10:22:46.590Z,5.75
2022-10-15T10:25:30.947Z,3.25
2022-10-15T10:28:06.103Z,3.47
2022-10-15T10:30:39.938Z,3.22
2022-10-15T10:33:08.789Z,3.13
2022-10-15T10:35:47.353Z,3.85
2022-10-15T10:38:23.856Z,3.63
2022-10-15T10:40:55.410Z,3.20
2022-10-15T10:43:27.428Z,4.25
2022-10-15T10:45:59.851Z,2.88
2022-10-15T10:48:30.430Z,3.97
2022-10-15T10:51:13.061Z,3.05
2022-10-15T10:53:54.964Z,2.50
2022-10-15T10:56:27.006Z,2.63
2022-10-15T10:59:01.813Z,4.57
2022-10-15T11:01:32.672Z,3.45
2022-10-15T11:04:03.036Z,3.80
2022-10-15T11:06:56.128Z,3.92
2022-10-15T11:09:40.194Z,3.35
2022-10-15T11:12:35.018Z,2.25
2022-10-15T11:15:15.827Z,3.47
2022-10-15T11:17:53.640Z,2.95
2022-10-15T11:20:47.502Z,4.00
2022-10-15T11:23:34.651Z,5.05
2022-10-15T11:26:12.269Z,3.58
2022-10-15T11:28:51.762Z,4.10
2022-10-15T11:31:28.503Z,3.38
2022-10-15T11:34:15.283Z,3.33
2022-10-15T11:36:58.761Z,3.30
2022-10-15T11:39:42.474Z,3.40
2022-10-15T11:42:19.431Z,3.65
2022-10-15T11:45:04.611Z,3.47
2022-10-15T11:47:45.674Z,4.25
2022-10-15T11:50:30.509Z,1.98
2022-10-15T11:53:50.438Z,3.92
2022-10-15T11:56:26.780Z,4.35
2022-10-15T11:59:01.086Z,4.82
2022-10-15T12:01:37.240Z,2.97
2022-10-15T12:04:14.966Z,2.95
2022-10-15T12:06:50.188Z,4.68
2022-10-15T12:09:24.636Z,3.83
2022-10-15T12:12:02.069Z,3.45
2022-10-15T12:14:41.678Z,4.22
2022-10-15T12:23:27.935Z,2.40
2022-10-15T12:29:37.946Z,2.08
2022-10-15T12:32:25.907Z,2.13
2022-10-15T12:34:59.179Z,2.55
2022-10-15T12:37:30.071Z,4.07
2022-10-15T12:40:02.934Z,1.45
2022-10-15T12:42:35.795Z,3.53
2022-10-15T12:45:07.308Z,3.97
2022-10-15T12:47:49.899Z,3.80
2022-10-15T12:50:21.826Z,2.70
2022-10-15T12:53:00.029Z,3.75
2022-10-15T12:55:35.713Z,3.88
2022-10-15T12:58:07.446Z,3.58
2022-10-15T13:00:39.282Z,3.70
2022-10-15T13:03:26.706Z,4.50
2022-10-15T13:05:56.028Z,3.40
2022-10-15T13:08:44.147Z,4.20
2022-10-15T13:11:23.737Z,4.97
2022-10-15T13:13:59.370Z,4.20
2022-10-15T13:16:28.351Z,4.78
2022-10-15T13:18:59.199Z,3.67
2022-10-15T13:21:50.102Z,5.15
2022-10-15T13:24:21.038Z,4.55
2022-10-15T13:26:51.881Z,4.72
2022-10-15T13:29:22.805Z,4.47
2022-10-15T13:31:52.424Z,4.70
2022-10-15T13:34:28.655Z,5.05
2022-10-15T13:36:59.668Z,5.80
2022-10-15T13:42:11.362Z,3.50
2022-10-15T13:44:40.366Z,4.88
2022-10-15T13:47:27.365Z,4.40
2022-10-15T13:50:15.028Z,2.50
2022-10-15T13:52:47.096Z,5.90
2022-10-15T13:55:23.911Z,3.88
2022-10-15T13:58:01.947Z,4.25
2022-10-15T14:00:34.151Z,3.85
2022-10-15T14:03:18.796Z,3.20
2022-10-15T14:05:49.229Z,3.40
2022-10-15T14:08:21.311Z,3.65
2022-10-15T14:10:51.127Z,3.47
2022-10-15T14:13:21.611Z,4.78
2022-10-15T14:15:58.546Z,3.30
2022-10-15T14:18:35.503Z,3.22
2022-10-15T14:21:04.478Z,5.35
2022-10-15T14:23:33.278Z,4.85
2022-10-15T14:26:04.073Z,6.75
2022-10-15T14:28:35.755Z,3.15
2022-10-15T14:31:05.233Z,5.13
2022-10-15T14:33:46.433Z,3.78
2022-10-15T14:36:27.259Z,5.45
2022-10-15T14:38:56.865Z,5.35
2022-10-15T14:41:31.056Z,5.90
2022-10-15T14:44:18.103Z,4.95
2022-10-15T14:46:50.236Z,3.65
2022-10-15T14:49:27.744Z,4.47
2022-10-15T14:52:00.078Z,4.57
2022-10-15T14:54:36.065Z,4.93
2022-10-15T14:57:05.753Z,5.85
2022-10-15T14:59:38.540Z,7.57
2022-10-15T15:02:15.062Z,4.18
2022-10-15T15:04:45.971Z,5.05
2022-10-15T15:07:18.015Z,3.70
2022-10-15T15:09:49.611Z,5.20
2022-10-15T15:12:27.076Z,5.40
2022-10-15T15:14:58.155Z,3.95
2022-10-15T15:17:28.428Z,4.05
2022-10-15T15:19:58.513Z,3.63
2022-10-15T15:22:32.001Z,5.78
2022-10-15T15:25:04.022Z,4.10
2022-10-15T15:27:37.305Z,5.13
2022-10-15T15:30:09.397Z,4.65
2022-10-15T15:32:38.013Z,3.63
2022-10-15T15:35:17.751Z,4.72
2022-10-15T15:37:46.938Z,3.60
2022-10-15T15:40:15.783Z,6.13
2022-10-15T15:42:45.287Z,4.53
2022-10-15T15:45:21.038Z,4.97
2022-10-15T15:47:49.936Z,5.43
2022-10-15T15:50:19.234Z,4.65
2022-10-15T15:52:48.335Z,5.10
2022-10-15T15:55:17.596Z,5.43
2022-10-15T15:57:48.401Z,4.38
2022-10-15T16:00:18.898Z,4.45
2022-10-15T16:02:47.766Z,6.25
2022-10-15T16:05:17.896Z,3.95
2022-10-15T16:07:46.973Z,5.05
2022-10-15T16:10:15.649Z,5.50
2022-10-15T16:12:44.759Z,3.65
2022-10-15T16:15:14.883Z,4.68
2022-10-15T16:17:45.521Z,5.68
2022-10-15T16:20:15.042Z,4.10
2022-10-15T16:22:43.759Z,9.02
2022-10-15T16:25:12.410Z,6.85
2022-10-15T16:27:41.048Z,4.13
2022-10-15T16:30:11.003Z,4.28
2022-10-15T16:32:39.634Z,5.55
2022-10-15T16:35:10.665Z,8.00
2022-10-15T16:37:39.504Z,5.82
2022-10-15T16:40:09.645Z,5.72
2022-10-15T16:42:39.428Z,5.20
2022-10-15T16:45:09.013Z,5.80
2022-10-15T16:47:37.626Z,4.57
2022-10-15T16:50:07.170Z,4.72
2022-10-15T16:52:37.259Z,4.70
2022-10-15T16:55:06.467Z,4.93
2022-10-15T16:57:35.064Z,5.53
2022-10-15T17:00:04.354Z,5.70
2022-10-15T17:02:33.013Z,5.07
2022-10-15T17:05:01.616Z,4.72
2022-10-15T17:07:31.615Z,4.18
2022-10-15T17:10:01.806Z,3.50
2022-10-15T17:12:31.855Z,4.70
2022-10-15T17:15:00.578Z,7.63
2022-10-15T17:17:29.354Z,4.50
2022-10-15T17:19:57.960Z,5.57
2022-10-15T17:22:26.928Z,5.35
2022-10-15T17:24:55.800Z,4.60
2022-10-15T17:27:25.932Z,5.30
2022-10-15T17:29:54.546Z,6.40
2022-10-15T17:32:23.435Z,4.55
2022-10-15T17:34:52.284Z,4.15
2022-10-15T17:37:21.087Z,5.28
2022-10-15T17:39:49.978Z,6.47
2022-10-15T17:42:18.908Z,4.05
2022-10-15T17:44:49.008Z,4.05
2022-10-15T17:47:17.665Z,4.20
2022-10-15T17:49:46.376Z,3.53
2022-10-15T17:52:16.569Z,3.80
2022-10-15T17:54:46.019Z,4.75
2022-10-15T17:57:14.719Z,4.88
2022-10-15T17:59:45.341Z,6.03
2022-10-15T18:02:17.866Z,2.97
2022-10-15T18:04:50.394Z,5.00
2022-10-15T18:07:19.951Z,4.63
2022-10-15T18:09:48.543Z,3.75
2022-10-15T18:12:17.165Z,4.47
2022-10-15T18:14:46.105Z,4.05
2022-10-15T18:17:21.594Z,4.55
2022-10-15T18:19:50.543Z,3.53
2022-10-15T18:22:20.525Z,4.43
2022-10-15T18:24:49.562Z,4.03
2022-10-15T18:27:18.349Z,3.20
2022-10-15T18:29:46.973Z,4.28
2022-10-15T18:32:15.675Z,4.15
2022-10-15T18:34:45.844Z,4.35
2022-10-15T18:37:14.565Z,3.80
2022-10-15T18:39:43.164Z,3.70
2022-10-15T18:42:11.832Z,3.30
2022-10-15T18:44:40.547Z,2.35
2022-10-15T18:47:09.213Z,3.00
2022-10-15T18:49:45.297Z,3.80
2022-10-15T18:52:21.648Z,2.47
2022-10-15T18:54:57.035Z,4.05
2022-10-15T18:57:25.849Z,3.30
2022-10-15T18:59:54.508Z,2.25
2022-10-15T19:02:23.526Z,2.05
2022-10-15T19:04:53.952Z,2.42
2022-10-15T19:07:22.563Z,2.42
2022-10-15T19:09:51.345Z,3.22
2022-10-15T19:12:24.768Z,2.03
2022-10-15T19:14:53.622Z,2.58
2022-10-15T19:17:22.349Z,2.53
2022-10-15T19:19:51.121Z,2.90
2022-10-15T19:22:21.207Z,1.75
2022-10-15T19:24:49.921Z,1.83
2022-10-15T19:27:18.588Z,3.33
2022-10-15T19:29:47.358Z,2.03
2022-10-15T19:32:16.182Z,1.23
2022-10-15T19:34:44.845Z,1.75
2022-10-15T19:37:13.580Z,2.75
2022-10-15T19:39:51.491Z,1.45
2022-10-15T19:42:22.955Z,1.55
2022-10-15T19:44:51.658Z,1.40
2022-10-15T19:47:21.079Z,1.48
2022-10-15T19:49:51.405Z,2.20
2022-10-15T19:52:20.198Z,2.58
2022-10-15T19:54:54.342Z,2.50
2022-10-15T19:57:23.483Z,1.13
2022-10-15T19:59:52.442Z,1.83
2022-10-15T20:02:21.154Z,1.67
2022-10-15T20:04:49.805Z,1.65
2022-10-15T20:07:18.774Z,1.17
2022-10-15T20:09:47.772Z,2.08
2022-10-15T20:12:17.783Z,1.40
2022-10-15T20:14:46.531Z,1.33
2022-10-15T20:17:15.221Z,1.08
2022-10-15T20:19:43.863Z,1.42
2022-10-15T20:22:12.584Z,0.88
2022-10-15T20:24:41.331Z,1.58
2022-10-15T20:27:10.051Z,1.88
2022-10-15T20:29:40.087Z,1.10
2022-10-15T20:32:23.388Z,1.80
2022-10-15T20:35:02.485Z,1.48
2022-10-15T20:37:32.280Z,1.58
2022-10-15T20:40:01.056Z,0.88
2022-10-15T20:42:34.208Z,1.80
2022-10-15T20:45:05.188Z,1.48
2022-10-15T20:47:34.882Z,2.30
2022-10-15T20:50:05.594Z,2.70
2022-10-15T20:52:35.665Z,0.98
2022-10-15T20:55:04.917Z,1.50
2022-10-15T20:57:33.835Z,1.13
2022-10-15T21:00:04.041Z,0.98
2022-10-15T21:02:33.885Z,1.48
2022-10-15T21:05:02.721Z,1.00
2022-10-15T21:07:32.056Z,1.13
2022-10-15T21:10:00.792Z,1.20
2022-10-15T21:12:29.529Z,1.08
2022-10-15T21:14:58.646Z,1.65
2022-10-15T21:17:28.959Z,1.77
2022-10-15T21:19:57.900Z,0.73
2022-10-15T21:22:26.616Z,1.67
2022-10-15T21:24:55.302Z,1.42
2022-10-15T21:27:24.239Z,1.38
2022-10-15T21:29:53.199Z,2.13
2022-10-15T21:32:21.909Z,1.52
2022-10-15T21:34:51.966Z,0.98
2022-10-15T21:37:20.641Z,1.30
2022-10-15T21:39:49.307Z,1.63
2022-10-15T21:42:18.163Z,1.38
2022-10-15T21:44:47.069Z,2.30
2022-10-15T21:47:15.765Z,1.15
2022-10-15T21:49:45.890Z,0.93
2022-10-15T21:52:15.991Z,1.48
2022-10-15T21:54:44.690Z,2.08
2022-10-15T21:57:13.375Z,1.13
2022-10-15T21:59:42.056Z,2.00
2022-10-15T22:02:11.059Z,2.63
2022-10-15T22:04:39.845Z,2.25
2022-10-15T22:07:09.331Z,2.85
2022-10-15T22:09:39.369Z,1.55
2022-10-15T22:12:08.148Z,1.27
2022-10-15T22:14:37.137Z,1.70
2022-10-15T22:17:06.032Z,2.50
2022-10-15T22:19:34.717Z,1.30
2022-10-15T22:22:03.417Z,2.33
2022-10-15T22:24:32.863Z,1.85
2022-10-15T22:27:02.917Z,2.70
2022-10-15T22:29:34.575Z,1.90
2022-10-15T22:32:05.102Z,1.55
2022-10-15T22:34:33.815Z,3.25
2022-10-15T22:37:02.482Z,1.98
2022-10-15T22:39:31.203Z,2.85
2022-10-15T22:41:59.889Z,2.00
2022-10-15T22:44:29.973Z,1.58
2022-10-15T22:46:58.613Z,1.42
2022-10-15T22:49:27.484Z,1.95
2022-10-15T22:51:56.147Z,2.05
2022-10-15T22:54:25.049Z,2.20
2022-10-15T22:56:53.737Z,2.13
2022-10-15T22:59:22.623Z,2.65
2022-10-15T23:01:52.668Z,1.33
2022-10-15T23:04:21.511Z,2.13
2022-10-15T23:06:50.115Z,0.98
2022-10-15T23:09:20.000Z,2.55
2022-10-15T23:11:48.627Z,2.03
2022-10-15T23:14:18.623Z,2.42
2022-10-15T23:16:48.634Z,1.85
2022-10-15T23:19:20.219Z,2.42
2022-10-15T23:21:50.353Z,2.63
2022-10-15T23:24:21.348Z,2.30
2022-10-15T23:26:50.137Z,2.53
2022-10-15T23:29:20.477Z,2.80
2022-10-15T23:31:50.138Z,2.50
2022-10-15T23:34:21.857Z,3.28
2022-10-15T23:36:51.296Z,2.70
2022-10-15T23:39:21.776Z,2.95
2022-10-15T23:41:50.655Z,2.58
2022-10-15T23:44:19.427Z,2.55
2022-10-15T23:46:48.265Z,2.72
2022-10-15T23:49:17.095Z,3.83
2022-10-15T23:51:47.143Z,4.38
2022-10-15T23:54:17.945Z,3.67
2022-10-15T23:56:47.253Z,3.03
2022-10-15T23:59:16.785Z,4.60
